• Join FlightAware (Why Join?)
  • Login
  • US Flag 
06:34PM EDT


 

Airport Tracker/Info


-or-


 

Live Flight TrackerFlight Track Log ✈ UAL4335 ✈ 29-Jun-2013 ✈ KORD - KRAP

Flight Track Log - Related Links

Times and Time Zones

All times are in EDT time to prevent confusion due to time zone crossing. See the UAL4335 flight status page for this flight to view local times or setup timezone preferences in your user account.

Time Position Orientation Groundspeed Altitude Reporting Facility
EDT Latitude Longitude Course Direction KTS MPH feet Rate Location/Type
02:55PM 42.0167 -87.8833 346° North 169 194 2,600  Level Chicago TRACON
02:57PM 42.0833 -87.8667 11° North 233 268 4,600 1,140 Climbing Chicago TRACON
02:58PM 42.1517 -87.8350 19° North 251 289 5,100 180 Climbing Chicago Center
02:59PM 42.2214 -87.8042 18° North 263 303 5,000 720 Descending Chicago Center
03:00PM 42.2931 -87.8111 356° North 260 299 6,700 2,220 Climbing Chicago Center
03:01PM 42.8134 -88.1822 346° North  Level FlightAware Approximate
03:01PM 42.3786 -87.8158 358° North 276 318 9,600  Level Chicago Center
03:02PM 42.4597 -87.8236 356° North 291 335 11,800 1,740 Climbing Chicago Center
03:03PM 42.5481 -87.8311 356° North 312 359 13,300 1,140 Climbing Chicago Center
03:04PM 42.6478 -87.8389 357° North 353 406 14,200 1,440 Climbing Chicago Center
03:05PM 42.7681 -87.8492 356° North 369 425 16,300 1,620 Climbing Chicago Center
03:06PM 42.8669 -87.8825 346° North 380 437 17,600 1,380 Climbing Chicago Center
03:07PM 42.9397 -87.9931 312° West 392 451 19,200 1,260 Climbing Chicago Center
03:08PM 43.0094 -88.1075 310° West 393 452 20,300 1,080 Climbing Chicago Center
03:09PM 43.0808 -88.2267 309° West 401 461 21,500 1,080 Climbing Chicago Center
03:10PM 43.1397 -88.3608 301° West 417 480 22,600 1,020 Climbing Chicago Center
03:11PM 43.1831 -88.5072 292° West 411 473 23,600 1,080 Climbing Chicago Center
03:12PM 43.2350 -88.6814 292° West 418 481 24,900 1,080 Climbing Chicago Center
03:13PM 43.2794 -88.8289 293° West 415 478 25,900 960 Climbing Chicago Center
03:14PM 43.3225 -88.9767 292° West 414 476 26,900 780 Climbing Chicago Center
03:15PM 43.3658 -89.1261 292° West 418 481 27,600 540 Climbing Chicago Center
03:16PM 43.4025 -89.2783 288° West 420 483 28,100 480 Climbing Chicago Center
03:17PM 43.4397 -89.4331 288° West 425 489 28,600 480 Climbing Chicago Center
03:18PM 43.4772 -89.5903 288° West 432 497 29,200 540 Climbing Chicago Center
03:19PM 43.5225 -89.7758 289° West 437 503 29,800 660 Climbing Chicago Center
03:20PM 43.5600 -89.9369 288° West 441 507 30,600 840 Climbing Chicago Center
03:21PM 43.5975 -90.0947 288° West 434 499 31,600 900 Climbing Chicago Center
03:22PM 43.6297 -90.2319 288° West 434 499 32,500 960 Climbing Minneapolis Center
03:23PM 43.6739 -90.4211 288° West 434 499 33,700 1,020 Climbing Chicago Center
03:24PM 43.7103 -90.5769 288° West 433 498 34,700 960 Climbing Chicago Center
03:25PM 43.7464 -90.7297 288° West 427 491 35,700 660 Climbing Minneapolis Center
03:26PM 43.7817 -90.8842 288° West 427 491 36,000 120 Climbing Minneapolis Center
03:27PM 43.8164 -91.0406 287° West 430 495 36,000  Level Minneapolis Center
03:28PM 43.8528 -91.1986 288° West 434 499 36,000  Level Minneapolis Center
03:30PM 43.8950 -91.3858 287° West 431 496 36,000  Level Minneapolis Center
03:31PM 43.9311 -91.5764 285° West 431 496 36,000  Level Minneapolis Center
03:32PM 43.9550 -91.7256 283° West 431 496 36,000  Level Minneapolis Center
03:33PM 43.9825 -91.8878 283° West 434 499 36,000  Level Minneapolis Center
03:34PM 44.0142 -92.0814 283° West 431 496 36,000  Level Minneapolis Center
03:35PM 44.0400 -92.2422 283° West 428 493 36,000  Level Minneapolis Center
03:36PM 44.0664 -92.4028 283° West 427 491 36,000  Level Minneapolis Center
03:37PM 44.0861 -92.5303 282° West 425 489 36,000  Level Minneapolis Center
03:38PM 44.1167 -92.7239 282° West 427 491 36,000  Level Minneapolis Center
03:39PM 44.1417 -92.8839 282° West 424 488 36,000  Level Minneapolis Center
03:40PM 44.1708 -93.0750 282° West 421 484 36,000  Level Minneapolis Center
03:41PM 44.1958 -93.2356 282° West 423 487 36,000  Level Minneapolis Center
03:42PM 44.2208 -93.3972 282° West 427 491 36,000  Level Minneapolis Center
03:43PM 44.2447 -93.5575 282° West 422 486 36,000  Level Minneapolis Center
03:44PM 44.2686 -93.7175 282° West 421 484 36,000  Level Minneapolis Center
03:45PM 44.2925 -93.8781 282° West 423 487 36,000  Level Minneapolis Center
03:46PM 44.3158 -94.0394 281° West 424 488 36,000  Level Minneapolis Center
03:47PM 44.3394 -94.1992 282° West 422 486 36,000  Level Minneapolis Center
03:48PM 44.3664 -94.3897 281° West 419 482 36,000  Level Minneapolis Center
03:49PM 44.3897 -94.5486 282° West 418 481 36,000  Level Minneapolis Center
03:50PM 44.4122 -94.7181 281° West 412 474 36,000  Level Minneapolis Center
03:51PM 44.4336 -94.8739 281° West 411 473 36,000  Level Minneapolis Center
03:52PM 44.4556 -95.0281 281° West 408 470 36,000  Level Minneapolis Center
03:53PM 44.4700 -95.1842 277° West 408 470 36,000  Level Minneapolis Center
03:54PM 44.4650 -95.3444 268° West 413 475 36,000  Level Minneapolis Center
03:55PM 44.4603 -95.5036 268° West 413 475 36,000  Level Minneapolis Center
03:56PM 44.4564 -95.6622 268° West 412 474 36,000  Level Minneapolis Center
03:57PM 44.4525 -95.8531 268° West 412 474 36,000  Level Minneapolis Center
03:58PM 44.4486 -96.0106 268° West 411 473 36,000  Level Minneapolis Center
04:00PM 44.4442 -96.1661 268° West 407 468 36,000  Level Minneapolis Center
04:01PM 44.4397 -96.3206 268° West 404 465 36,000  Level Minneapolis Center
04:02PM 44.4344 -96.4761 267° West 404 465 36,000  Level Minneapolis Center
04:03PM 44.4275 -96.6931 268° West 402 463 36,000  Level Minneapolis Center
04:04PM 44.4228 -96.8478 268° West 401 461 36,000  Level Minneapolis Center
04:05PM 44.4167 -97.0025 267° West 400 460 36,000  Level Minneapolis Center
04:06PM 44.4108 -97.1575 267° West 401 461 36,000  Level Minneapolis Center
04:07PM 44.4056 -97.3119 267° West 400 460 36,000  Level Minneapolis Center
04:08PM 44.4003 -97.4669 267° West 400 460 36,000  Level Minneapolis Center
04:09PM 44.3925 -97.6508 267° West 397 457 36,000  Level Minneapolis Center
04:10PM 44.3867 -97.8044 267° West 396 456 36,000  Level Minneapolis Center
04:11PM 44.3778 -97.9886 266° West 397 457 36,000  Level Minneapolis Center
04:12PM 44.3717 -98.1408 267° West 396 456 36,000  Level Minneapolis Center
04:13PM 44.3644 -98.2931 266° West 395 455 36,000  Level Minneapolis Center
04:14PM 44.3581 -98.4486 267° West 394 453 36,000  Level Minneapolis Center
04:15PM 44.3508 -98.6011 266° West 394 453 36,000  Level Minneapolis Center
04:16PM 44.3433 -98.7517 266° West 390 449 36,000  Level Minneapolis Center
04:17PM 44.3347 -98.9342 266° West 391 450 36,000  Level Minneapolis Center
04:18PM 44.3256 -99.0861 265° West 392 451 36,000  Level Minneapolis Center
04:19PM 44.3178 -99.2372 266° West 390 449 36,000  Level Minneapolis Center
04:21PM 44.3083 -99.3894 265° West 392 451 36,000  Level Minneapolis Center
04:22PM 44.2989 -99.5714 266° West 392 451 36,000  Level Minneapolis Center
04:23PM 44.2892 -99.7222 265° West 390 449 36,000  Level Minneapolis Center
04:24PM 44.2803 -99.8733 265° West 390 449 36,000  Level Minneapolis Center
04:25PM 44.2714 -100.0242 265° West 389 448 36,000  Level Minneapolis Center
04:26PM 44.2597 -100.2036 265° West 387 445 36,000  Level Minneapolis Center
04:27PM 44.2511 -100.3536 265° West 386 444 36,000  Level Minneapolis Center
04:28PM 44.2414 -100.5036 265° West 387 445 36,000  Level Minneapolis Center
04:29PM 44.2308 -100.6536 264° West 388 447 36,000  Level Minneapolis Center
04:30PM 44.2197 -100.8033 264° West 388 447 36,000 -720 Level Minneapolis Center
04:31PM 44.2100 -100.9539 265° West 389 448 34,600 -1,620 Descending Minneapolis Center
04:32PM 44.2008 -101.0994 265° West 385 443 32,800 -2,040 Descending Minneapolis Center
04:33PM 44.1911 -101.2406 265° West 377 434 30,500 -2,520 Descending Minneapolis Center
04:34PM 44.1778 -101.4064 264° West 368 423 27,700 -2,340 Descending Minneapolis Center
04:35PM 44.1656 -101.5400 263° West 357 411 25,400 -2,280 Descending Denver Center
04:36PM 44.1539 -101.7000 264° West 350 403 22,700 -2,460 Descending Denver Center
04:37PM 44.1456 -101.8311 265° West 342 394 20,400 -2,160 Descending Denver Center
04:38PM 44.1353 -101.9589 264° West 335 386 18,300 -1,980 Descending Denver Center
04:40PM 44.1236 -102.1092 264° West 314 361 16,100 -1,800 Descending Denver Center
04:40PM 44.1061 -102.1994 255° West 318 366 14,600 -1,740 Descending Denver Center
04:42PM 44.0817 -102.3344 256° West 288 331 12,600 -1,500 Descending Denver Center
04:42PM 44.0678 -102.4114 256° West 280 322 11,500 -1,380 Descending Denver Center
04:44PM 44.0494 -102.5319 258° West 266 306 9,900 -1,260 Descending Denver Center
04:45PM 44.0322 -102.6250 256° West 265 305 8,900 -1,020 Descending Denver Center
04:46PM 44.0136 -102.7156 254° West 261 300 7,900 -1,080 Descending Denver Center
04:47PM 43.9925 -102.8417 257° West 254 292 6,600 -1,140 Descending Denver Center
04:48PM 43.9783 -102.9192 256° West 238 274 5,700 -960 Descending Denver Center
04:49PM 43.9747 -102.9939 266° West 183 211 4,800 -1,020 Descending Denver Center
04:50PM 44.0128 -103.0361 321° Northwest 140 161 3,600 -1,080 Descending Denver Center